sensor_id;sensor_type;location;lat;lon;timestamp;temperature;humidity
23815;DHT22;12088;53.078;8.720;2023-03-14T00:02:22;11.00;99.90
23815;DHT22;12088;53.078;8.720;2023-03-14T00:04:48;10.90;99.90
23815;DHT22;12088;53.078;8.720;2023-03-14T00:07:14;10.90;99.90
23815;DHT22;12088;53.078;8.720;2023-03-14T00:09:39;10.90;99.90
23815;DHT22;12088;53.078;8.720;2023-03-14T00:12:05;10.80;99.90
23815;DHT22;12088;53.078;8.720;2023-03-14T00:14:32;10.80;99.90
23815;DHT22;12088;53.078;8.720;2023-03-14T00:16:57;10.80;99.90
23815;DHT22;12088;53.078;8.720;2023-03-14T00:19:23;10.70;99.90
23815;DHT22;12088;53.078;8.720;2023-03-14T00:21:48;10.70;99.90
23815;DHT22;12088;53.078;8.720;2023-03-14T00:24:14;10.70;99.90
23815;DHT22;12088;53.078;8.720;2023-03-14T00:26:39;10.70;99.90
23815;DHT22;12088;53.078;8.720;2023-03-14T00:29:05;10.70;99.90
23815;DHT22;12088;53.078;8.720;2023-03-14T00:31:30;10.80;99.90
23815;DHT22;12088;53.078;8.720;2023-03-14T00:33:56;10.80;99.90
23815;DHT22;12088;53.078;8.720;2023-03-14T00:36:22;10.80;99.90
23815;DHT22;12088;53.078;8.720;2023-03-14T00:38:50;10.80;99.90
23815;DHT22;12088;53.078;8.720;2023-03-14T00:41:21;10.80;99.90
23815;DHT22;12088;53.078;8.720;2023-03-14T00:43:50;10.90;99.90
23815;DHT22;12088;53.078;8.720;2023-03-14T00:46:16;10.90;99.90
23815;DHT22;12088;53.078;8.720;2023-03-14T00:48:42;10.90;99.90
23815;DHT22;12088;53.078;8.720;2023-03-14T00:51:09;10.90;99.90
23815;DHT22;12088;53.078;8.720;2023-03-14T00:53:38;10.90;99.90
23815;DHT22;12088;53.078;8.720;2023-03-14T00:56:06;10.70;99.90
23815;DHT22;12088;53.078;8.720;2023-03-14T00:58:32;10.80;99.90
23815;DHT22;12088;53.078;8.720;2023-03-14T01:00:58;10.70;99.90
23815;DHT22;12088;53.078;8.720;2023-03-14T01:03:23;10.70;99.90
23815;DHT22;12088;53.078;8.720;2023-03-14T01:05:49;10.70;99.90
23815;DHT22;12088;53.078;8.720;2023-03-14T01:08:15;10.60;99.90
23815;DHT22;12088;53.078;8.720;2023-03-14T01:10:40;10.60;99.90
23815;DHT22;12088;53.078;8.720;2023-03-14T01:13:06;10.70;99.90
23815;DHT22;12088;53.078;8.720;2023-03-14T01:15:33;10.60;99.90
23815;DHT22;12088;53.078;8.720;2023-03-14T01:17:59;10.60;99.90
23815;DHT22;12088;53.078;8.720;2023-03-14T01:20:24;10.60;99.90
23815;DHT22;12088;53.078;8.720;2023-03-14T01:22:50;10.70;99.90
23815;DHT22;12088;53.078;8.720;2023-03-14T01:25:16;10.80;99.90
23815;DHT22;12088;53.078;8.720;2023-03-14T01:27:42;10.90;99.90
23815;DHT22;12088;53.078;8.720;2023-03-14T01:30:09;10.90;99.90
23815;DHT22;12088;53.078;8.720;2023-03-14T01:32:35;10.90;99.90
23815;DHT22;12088;53.078;8.720;2023-03-14T01:35:01;11.00;99.90
23815;DHT22;12088;53.078;8.720;2023-03-14T01:37:26;11.00;99.90
23815;DHT22;12088;53.078;8.720;2023-03-14T01:39:51;10.90;99.90
23815;DHT22;12088;53.078;8.720;2023-03-14T01:42:17;10.90;99.90
23815;DHT22;12088;53.078;8.720;2023-03-14T01:44:54;10.90;99.90
23815;DHT22;12088;53.078;8.720;2023-03-14T01:47:20;10.80;99.90
23815;DHT22;12088;53.078;8.720;2023-03-14T01:49:48;10.90;99.90
23815;DHT22;12088;53.078;8.720;2023-03-14T01:52:24;10.90;99.90
23815;DHT22;12088;53.078;8.720;2023-03-14T01:54:53;10.90;99.90
23815;DHT22;12088;53.078;8.720;2023-03-14T01:57:26;10.90;99.90
23815;DHT22;12088;53.078;8.720;2023-03-14T01:59:56;10.80;99.90
23815;DHT22;12088;53.078;8.720;2023-03-14T02:02:24;10.80;99.90
23815;DHT22;12088;53.078;8.720;2023-03-14T02:04:51;10.80;99.90
23815;DHT22;12088;53.078;8.720;2023-03-14T02:07:35;10.80;99.90
23815;DHT22;12088;53.078;8.720;2023-03-14T02:10:03;10.80;99.90
23815;DHT22;12088;53.078;8.720;2023-03-14T02:12:29;10.80;99.90
23815;DHT22;12088;53.078;8.720;2023-03-14T02:14:55;10.80;99.90
23815;DHT22;12088;53.078;8.720;2023-03-14T02:17:22;10.90;99.90
23815;DHT22;12088;53.078;8.720;2023-03-14T02:22:45;10.90;99.90
23815;DHT22;12088;53.078;8.720;2023-03-14T02:27:54;11.00;99.90
23815;DHT22;12088;53.078;8.720;2023-03-14T02:30:22;11.00;99.90
23815;DHT22;12088;53.078;8.720;2023-03-14T02:35:32;11.00;99.90
23815;DHT22;12088;53.078;8.720;2023-03-14T02:40:30;11.20;99.90
23815;DHT22;12088;53.078;8.720;2023-03-14T02:42:56;11.30;99.90
23815;DHT22;12088;53.078;8.720;2023-03-14T02:47:53;11.30;99.90
23815;DHT22;12088;53.078;8.720;2023-03-14T02:50:22;11.40;99.90
23815;DHT22;12088;53.078;8.720;2023-03-14T02:52:48;11.30;99.90
23815;DHT22;12088;53.078;8.720;2023-03-14T02:55:14;11.40;99.90
23815;DHT22;12088;53.078;8.720;2023-03-14T02:57:39;11.40;99.90
23815;DHT22;12088;53.078;8.720;2023-03-14T03:00:05;11.40;99.90
23815;DHT22;12088;53.078;8.720;2023-03-14T03:02:31;11.40;99.90
23815;DHT22;12088;53.078;8.720;2023-03-14T03:04:57;11.40;99.90
23815;DHT22;12088;53.078;8.720;2023-03-14T03:07:23;11.40;99.90
23815;DHT22;12088;53.078;8.720;2023-03-14T03:09:49;11.40;99.90
23815;DHT22;12088;53.078;8.720;2023-03-14T03:12:14;11.50;99.90
23815;DHT22;12088;53.078;8.720;2023-03-14T03:14:40;11.40;99.90
23815;DHT22;12088;53.078;8.720;2023-03-14T03:17:06;11.40;99.90
23815;DHT22;12088;53.078;8.720;2023-03-14T03:19:33;11.40;99.90
23815;DHT22;12088;53.078;8.720;2023-03-14T03:21:58;11.40;99.90
23815;DHT22;12088;53.078;8.720;2023-03-14T03:24:25;11.40;99.90
23815;DHT22;12088;53.078;8.720;2023-03-14T03:26:50;11.50;99.90
23815;DHT22;12088;53.078;8.720;2023-03-14T03:29:16;11.50;99.90
23815;DHT22;12088;53.078;8.720;2023-03-14T03:31:42;11.50;99.90
23815;DHT22;12088;53.078;8.720;2023-03-14T03:34:07;11.50;99.90
23815;DHT22;12088;53.078;8.720;2023-03-14T03:36:33;11.40;99.90
23815;DHT22;12088;53.078;8.720;2023-03-14T03:38:59;11.50;99.90
23815;DHT22;12088;53.078;8.720;2023-03-14T03:41:24;11.30;99.90
23815;DHT22;12088;53.078;8.720;2023-03-14T03:43:50;11.10;99.90
23815;DHT22;12088;53.078;8.720;2023-03-14T03:46:15;11.00;99.90
23815;DHT22;12088;53.078;8.720;2023-03-14T03:48:41;11.00;99.90
23815;DHT22;12088;53.078;8.720;2023-03-14T03:51:07;11.00;99.90
23815;DHT22;12088;53.078;8.720;2023-03-14T03:53:32;10.40;99.90
23815;DHT22;12088;53.078;8.720;2023-03-14T03:55:58;9.80;99.90
23815;DHT22;12088;53.078;8.720;2023-03-14T03:58:23;9.70;99.90
23815;DHT22;12088;53.078;8.720;2023-03-14T04:00:49;9.60;99.90
23815;DHT22;12088;53.078;8.720;2023-03-14T04:03:14;9.60;99.90
23815;DHT22;12088;53.078;8.720;2023-03-14T04:05:40;9.70;99.90
23815;DHT22;12088;53.078;8.720;2023-03-14T04:08:05;9.80;99.90
23815;DHT22;12088;53.078;8.720;2023-03-14T04:10:34;9.80;99.90
23815;DHT22;12088;53.078;8.720;2023-03-14T04:13:00;10.00;99.90
23815;DHT22;12088;53.078;8.720;2023-03-14T04:15:25;10.00;99.90
23815;DHT22;12088;53.078;8.720;2023-03-14T04:20:17;10.20;99.90
23815;DHT22;12088;53.078;8.720;2023-03-14T04:22:43;10.20;99.90
23815;DHT22;12088;53.078;8.720;2023-03-14T04:25:08;10.20;99.90
23815;DHT22;12088;53.078;8.720;2023-03-14T04:27:34;10.30;99.90
23815;DHT22;12088;53.078;8.720;2023-03-14T04:34:51;10.50;99.90
23815;DHT22;12088;53.078;8.720;2023-03-14T04:37:16;10.30;99.90
23815;DHT22;12088;53.078;8.720;2023-03-14T04:42:08;10.40;99.90
23815;DHT22;12088;53.078;8.720;2023-03-14T04:44:33;10.40;99.90
23815;DHT22;12088;53.078;8.720;2023-03-14T04:46:59;10.40;99.90
23815;DHT22;12088;53.078;8.720;2023-03-14T04:49:24;10.40;99.90
23815;DHT22;12088;53.078;8.720;2023-03-14T04:51:50;10.40;99.90
23815;DHT22;12088;53.078;8.720;2023-03-14T04:59:10;10.40;99.90
23815;DHT22;12088;53.078;8.720;2023-03-14T05:01:35;10.50;99.90
23815;DHT22;12088;53.078;8.720;2023-03-14T05:04:01;10.40;99.90
23815;DHT22;12088;53.078;8.720;2023-03-14T05:06:26;10.30;99.90
23815;DHT22;12088;53.078;8.720;2023-03-14T05:08:52;10.20;99.90
23815;DHT22;12088;53.078;8.720;2023-03-14T05:11:17;10.30;99.90
23815;DHT22;12088;53.078;8.720;2023-03-14T05:13:43;10.20;99.90
23815;DHT22;12088;53.078;8.720;2023-03-14T05:16:10;10.20;99.90
23815;DHT22;12088;53.078;8.720;2023-03-14T05:18:36;10.10;99.90
23815;DHT22;12088;53.078;8.720;2023-03-14T05:21:03;10.10;99.90
23815;DHT22;12088;53.078;8.720;2023-03-14T05:23:29;10.10;99.90
23815;DHT22;12088;53.078;8.720;2023-03-14T05:25:55;10.10;99.90
23815;DHT22;12088;53.078;8.720;2023-03-14T05:28:21;10.10;99.90
23815;DHT22;12088;53.078;8.720;2023-03-14T05:30:46;10.10;99.90
23815;DHT22;12088;53.078;8.720;2023-03-14T05:33:12;10.10;99.90
23815;DHT22;12088;53.078;8.720;2023-03-14T05:35:37;10.00;99.90
23815;DHT22;12088;53.078;8.720;2023-03-14T05:38:03;9.90;99.90
23815;DHT22;12088;53.078;8.720;2023-03-14T05:40:28;9.90;99.90
23815;DHT22;12088;53.078;8.720;2023-03-14T05:42:54;9.90;99.90
23815;DHT22;12088;53.078;8.720;2023-03-14T05:45:19;9.90;99.90
23815;DHT22;12088;53.078;8.720;2023-03-14T05:47:45;9.90;99.90
23815;DHT22;12088;53.078;8.720;2023-03-14T05:50:10;9.80;99.90
23815;DHT22;12088;53.078;8.720;2023-03-14T05:52:36;9.90;99.90
23815;DHT22;12088;53.078;8.720;2023-03-14T05:55:02;9.90;99.90
23815;DHT22;12088;53.078;8.720;2023-03-14T05:57:28;9.90;99.90
23815;DHT22;12088;53.078;8.720;2023-03-14T05:59:53;9.90;99.90
23815;DHT22;12088;53.078;8.720;2023-03-14T06:02:19;10.00;99.90
23815;DHT22;12088;53.078;8.720;2023-03-14T06:04:44;10.00;99.90
23815;DHT22;12088;53.078;8.720;2023-03-14T06:07:10;10.10;99.90
23815;DHT22;12088;53.078;8.720;2023-03-14T06:09:35;10.10;99.90
23815;DHT22;12088;53.078;8.720;2023-03-14T06:12:01;10.20;99.90
23815;DHT22;12088;53.078;8.720;2023-03-14T06:14:26;10.20;99.90
23815;DHT22;12088;53.078;8.720;2023-03-14T06:16:52;10.30;99.90
23815;DHT22;12088;53.078;8.720;2023-03-14T06:19:18;10.30;99.90
23815;DHT22;12088;53.078;8.720;2023-03-14T06:21:43;10.30;99.90
23815;DHT22;12088;53.078;8.720;2023-03-14T06:24:09;10.30;99.90
23815;DHT22;12088;53.078;8.720;2023-03-14T06:26:35;10.30;99.90
23815;DHT22;12088;53.078;8.720;2023-03-14T06:29:00;10.30;99.90
23815;DHT22;12088;53.078;8.720;2023-03-14T06:31:29;10.20;99.90
23815;DHT22;12088;53.078;8.720;2023-03-14T06:33:55;10.30;99.90
23815;DHT22;12088;53.078;8.720;2023-03-14T06:36:21;10.30;99.90
23815;DHT22;12088;53.078;8.720;2023-03-14T06:38:46;10.20;99.90
23815;DHT22;12088;53.078;8.720;2023-03-14T06:41:12;10.20;99.90
23815;DHT22;12088;53.078;8.720;2023-03-14T06:43:37;10.20;99.90
23815;DHT22;12088;53.078;8.720;2023-03-14T06:46:03;10.20;99.90
23815;DHT22;12088;53.078;8.720;2023-03-14T06:48:28;10.20;99.90
23815;DHT22;12088;53.078;8.720;2023-03-14T06:50:54;10.20;99.90
23815;DHT22;12088;53.078;8.720;2023-03-14T06:53:19;10.20;99.90
23815;DHT22;12088;53.078;8.720;2023-03-14T06:55:45;10.20;99.90
23815;DHT22;12088;53.078;8.720;2023-03-14T07:00:37;10.20;99.90
23815;DHT22;12088;53.078;8.720;2023-03-14T07:03:02;10.20;99.90
23815;DHT22;12088;53.078;8.720;2023-03-14T07:05:28;10.20;99.90
23815;DHT22;12088;53.078;8.720;2023-03-14T07:07:54;10.30;99.90
23815;DHT22;12088;53.078;8.720;2023-03-14T07:10:19;10.20;99.90
23815;DHT22;12088;53.078;8.720;2023-03-14T07:12:45;10.30;99.90
23815;DHT22;12088;53.078;8.720;2023-03-14T07:15:11;10.30;99.90
23815;DHT22;12088;53.078;8.720;2023-03-14T07:17:36;10.30;99.90
23815;DHT22;12088;53.078;8.720;2023-03-14T07:20:02;10.40;99.90
23815;DHT22;12088;53.078;8.720;2023-03-14T07:22:30;10.50;99.90
23815;DHT22;12088;53.078;8.720;2023-03-14T07:24:55;10.50;99.90
23815;DHT22;12088;53.078;8.720;2023-03-14T07:27:21;10.50;99.90
23815;DHT22;12088;53.078;8.720;2023-03-14T07:29:46;10.50;99.90
23815;DHT22;12088;53.078;8.720;2023-03-14T07:32:12;10.60;99.90
23815;DHT22;12088;53.078;8.720;2023-03-14T07:37:05;10.80;99.90
23815;DHT22;12088;53.078;8.720;2023-03-14T07:41:57;10.80;99.90
23815;DHT22;12088;53.078;8.720;2023-03-14T07:44:22;11.00;99.90
23815;DHT22;12088;53.078;8.720;2023-03-14T07:46:48;11.10;99.90
23815;DHT22;12088;53.078;8.720;2023-03-14T07:49:13;11.10;99.90
23815;DHT22;12088;53.078;8.720;2023-03-14T07:51:39;11.10;99.90
23815;DHT22;12088;53.078;8.720;2023-03-14T07:54:04;11.10;99.90
23815;DHT22;12088;53.078;8.720;2023-03-14T07:56:30;11.10;99.90
23815;DHT22;12088;53.078;8.720;2023-03-14T07:58:56;11.00;99.90
23815;DHT22;12088;53.078;8.720;2023-03-14T08:01:22;10.90;99.90
23815;DHT22;12088;53.078;8.720;2023-03-14T08:03:47;10.90;99.90
23815;DHT22;12088;53.078;8.720;2023-03-14T08:06:13;10.90;99.90
23815;DHT22;12088;53.078;8.720;2023-03-14T08:08:39;10.90;99.90
23815;DHT22;12088;53.078;8.720;2023-03-14T08:13:33;10.80;99.90
23815;DHT22;12088;53.078;8.720;2023-03-14T08:18:25;10.70;99.90
23815;DHT22;12088;53.078;8.720;2023-03-14T08:20:51;10.80;99.90
23815;DHT22;12088;53.078;8.720;2023-03-14T08:28:08;10.90;99.90
23815;DHT22;12088;53.078;8.720;2023-03-14T08:33:00;10.90;99.90
23815;DHT22;12088;53.078;8.720;2023-03-14T08:35:26;11.00;99.90
23815;DHT22;12088;53.078;8.720;2023-03-14T08:40:18;10.60;99.90
23815;DHT22;12088;53.078;8.720;2023-03-14T08:42:43;10.40;99.90
23815;DHT22;12088;53.078;8.720;2023-03-14T08:45:12;10.30;99.90
23815;DHT22;12088;53.078;8.720;2023-03-14T08:47:38;10.20;99.90
23815;DHT22;12088;53.078;8.720;2023-03-14T08:52:30;10.20;99.90
23815;DHT22;12088;53.078;8.720;2023-03-14T08:54:57;10.10;99.90
23815;DHT22;12088;53.078;8.720;2023-03-14T08:57:22;10.10;99.90
23815;DHT22;12088;53.078;8.720;2023-03-14T08:59:56;10.10;99.90
23815;DHT22;12088;53.078;8.720;2023-03-14T09:02:22;10.10;99.90
23815;DHT22;12088;53.078;8.720;2023-03-14T09:04:49;10.10;99.90
23815;DHT22;12088;53.078;8.720;2023-03-14T09:07:15;10.20;99.90
23815;DHT22;12088;53.078;8.720;2023-03-14T09:09:40;10.00;99.90
23815;DHT22;12088;53.078;8.720;2023-03-14T09:12:06;9.90;99.90
23815;DHT22;12088;53.078;8.720;2023-03-14T09:14:31;8.40;99.90
23815;DHT22;12088;53.078;8.720;2023-03-14T09:16:57;7.40;99.90
23815;DHT22;12088;53.078;8.720;2023-03-14T09:19:23;7.00;99.90
23815;DHT22;12088;53.078;8.720;2023-03-14T09:21:48;7.00;99.90
23815;DHT22;12088;53.078;8.720;2023-03-14T09:24:14;7.00;99.90
23815;DHT22;12088;53.078;8.720;2023-03-14T09:26:40;6.90;99.90
23815;DHT22;12088;53.078;8.720;2023-03-14T09:29:05;7.00;99.90
23815;DHT22;12088;53.078;8.720;2023-03-14T09:31:31;6.80;99.90
23815;DHT22;12088;53.078;8.720;2023-03-14T09:33:56;6.80;99.90
23815;DHT22;12088;53.078;8.720;2023-03-14T09:36:22;6.80;99.90
23815;DHT22;12088;53.078;8.720;2023-03-14T09:38:47;6.70;99.90
23815;DHT22;12088;53.078;8.720;2023-03-14T09:41:21;6.50;99.90
23815;DHT22;12088;53.078;8.720;2023-03-14T09:43:59;6.30;99.90
23815;DHT22;12088;53.078;8.720;2023-03-14T09:46:27;6.00;99.90
23815;DHT22;12088;53.078;8.720;2023-03-14T09:48:52;5.80;99.90
23815;DHT22;12088;53.078;8.720;2023-03-14T09:51:20;5.60;99.90
23815;DHT22;12088;53.078;8.720;2023-03-14T09:53:49;5.40;99.90
23815;DHT22;12088;53.078;8.720;2023-03-14T09:56:19;5.30;99.90
23815;DHT22;12088;53.078;8.720;2023-03-14T09:58:50;5.30;99.90
23815;DHT22;12088;53.078;8.720;2023-03-14T10:01:19;5.00;99.90
23815;DHT22;12088;53.078;8.720;2023-03-14T10:03:47;5.00;99.90
23815;DHT22;12088;53.078;8.720;2023-03-14T10:06:13;5.00;99.90
23815;DHT22;12088;53.078;8.720;2023-03-14T10:08:41;5.00;99.90
23815;DHT22;12088;53.078;8.720;2023-03-14T10:11:16;5.20;99.90
23815;DHT22;12088;53.078;8.720;2023-03-14T10:14:06;5.00;99.90
23815;DHT22;12088;53.078;8.720;2023-03-14T10:16:34;4.90;99.90
23815;DHT22;12088;53.078;8.720;2023-03-14T10:19:06;4.70;99.90
23815;DHT22;12088;53.078;8.720;2023-03-14T10:21:39;5.00;99.90
23815;DHT22;12088;53.078;8.720;2023-03-14T10:24:10;5.20;99.90
23815;DHT22;12088;53.078;8.720;2023-03-14T10:26:36;5.20;99.90
23815;DHT22;12088;53.078;8.720;2023-03-14T10:29:08;5.40;99.90
23815;DHT22;12088;53.078;8.720;2023-03-14T10:31:47;5.40;99.90
23815;DHT22;12088;53.078;8.720;2023-03-14T10:35:03;5.10;99.90
23815;DHT22;12088;53.078;8.720;2023-03-14T10:37:22;5.00;99.90
23815;DHT22;12088;53.078;8.720;2023-03-14T10:39:58;5.30;99.90
23815;DHT22;12088;53.078;8.720;2023-03-14T10:42:32;5.40;99.90
23815;DHT22;12088;53.078;8.720;2023-03-14T10:45:22;5.30;99.90
23815;DHT22;12088;53.078;8.720;2023-03-14T10:47:50;5.30;99.90
23815;DHT22;12088;53.078;8.720;2023-03-14T10:50:30;5.40;99.90
23815;DHT22;12088;53.078;8.720;2023-03-14T10:52:57;5.40;99.90
23815;DHT22;12088;53.078;8.720;2023-03-14T10:55:24;5.50;99.90
23815;DHT22;12088;53.078;8.720;2023-03-14T10:57:51;5.50;99.90
23815;DHT22;12088;53.078;8.720;2023-03-14T11:00:22;5.40;99.90
23815;DHT22;12088;53.078;8.720;2023-03-14T11:03:04;5.40;99.90
23815;DHT22;12088;53.078;8.720;2023-03-14T11:05:51;5.30;99.90
23815;DHT22;12088;53.078;8.720;2023-03-14T11:08:31;5.50;99.90
23815;DHT22;12088;53.078;8.720;2023-03-14T11:11:15;5.60;99.90
23815;DHT22;12088;53.078;8.720;2023-03-14T11:14:08;5.70;99.90
23815;DHT22;12088;53.078;8.720;2023-03-14T11:19:46;5.50;99.90
23815;DHT22;12088;53.078;8.720;2023-03-14T11:22:33;5.70;99.90
23815;DHT22;12088;53.078;8.720;2023-03-14T11:27:42;5.90;99.90
23815;DHT22;12088;53.078;8.720;2023-03-14T11:30:23;5.90;99.90
23815;DHT22;12088;53.078;8.720;2023-03-14T11:32:59;6.20;99.90
23815;DHT22;12088;53.078;8.720;2023-03-14T11:35:34;6.00;99.90
23815;DHT22;12088;53.078;8.720;2023-03-14T11:40:39;6.50;99.90
23815;DHT22;12088;53.078;8.720;2023-03-14T11:45:40;6.50;99.90
23815;DHT22;12088;53.078;8.720;2023-03-14T11:50:59;6.40;99.90
23815;DHT22;12088;53.078;8.720;2023-03-14T11:53:53;6.30;99.90
23815;DHT22;12088;53.078;8.720;2023-03-14T11:56:52;6.10;99.90
23815;DHT22;12088;53.078;8.720;2023-03-14T11:59:50;6.30;99.90
23815;DHT22;12088;53.078;8.720;2023-03-14T12:10:52;7.70;99.90
23815;DHT22;12088;53.078;8.720;2023-03-14T12:13:19;7.80;99.90
23815;DHT22;12088;53.078;8.720;2023-03-14T12:15:57;7.20;99.90
23815;DHT22;12088;53.078;8.720;2023-03-14T12:18:29;7.10;99.90
23815;DHT22;12088;53.078;8.720;2023-03-14T12:20:58;7.20;99.90
23815;DHT22;12088;53.078;8.720;2023-03-14T12:23:25;7.30;99.90
23815;DHT22;12088;53.078;8.720;2023-03-14T12:26:26;7.20;99.90
23815;DHT22;12088;53.078;8.720;2023-03-14T12:29:11;7.00;99.90
23815;DHT22;12088;53.078;8.720;2023-03-14T12:31:47;6.70;99.90
23815;DHT22;12088;53.078;8.720;2023-03-14T12:45:25;7.00;99.90
23815;DHT22;12088;53.078;8.720;2023-03-14T12:50:31;6.90;99.90
23815;DHT22;12088;53.078;8.720;2023-03-14T12:53:20;7.10;99.90
23815;DHT22;12088;53.078;8.720;2023-03-14T12:56:22;6.90;99.90
23815;DHT22;12088;53.078;8.720;2023-03-14T13:01:54;9.80;99.90
23815;DHT22;12088;53.078;8.720;2023-03-14T13:04:27;10.40;99.90
23815;DHT22;12088;53.078;8.720;2023-03-14T13:06:55;11.00;99.90
23815;DHT22;12088;53.078;8.720;2023-03-14T13:12:10;10.10;99.90
23815;DHT22;12088;53.078;8.720;2023-03-14T13:14:41;9.40;99.90
23815;DHT22;12088;53.078;8.720;2023-03-14T13:17:26;8.50;99.90
23815;DHT22;12088;53.078;8.720;2023-03-14T13:19:57;8.30;99.90
23815;DHT22;12088;53.078;8.720;2023-03-14T13:25:00;7.40;99.90
23815;DHT22;12088;53.078;8.720;2023-03-14T13:27:26;7.30;99.90
23815;DHT22;12088;53.078;8.720;2023-03-14T13:29:52;7.00;99.90
23815;DHT22;12088;53.078;8.720;2023-03-14T13:32:21;7.00;99.90
23815;DHT22;12088;53.078;8.720;2023-03-14T13:34:47;7.00;99.90
23815;DHT22;12088;53.078;8.720;2023-03-14T13:37:22;8.50;99.90
23815;DHT22;12088;53.078;8.720;2023-03-14T13:39:57;8.80;99.90
23815;DHT22;12088;53.078;8.720;2023-03-14T13:42:27;8.30;99.90
23815;DHT22;12088;53.078;8.720;2023-03-14T13:44:55;8.00;99.90
23815;DHT22;12088;53.078;8.720;2023-03-14T13:47:24;7.90;99.90
23815;DHT22;12088;53.078;8.720;2023-03-14T13:49:50;7.70;99.90
23815;DHT22;12088;53.078;8.720;2023-03-14T13:52:30;7.60;99.90
23815;DHT22;12088;53.078;8.720;2023-03-14T13:54:57;7.90;99.90
23815;DHT22;12088;53.078;8.720;2023-03-14T13:57:24;8.00;99.90
23815;DHT22;12088;53.078;8.720;2023-03-14T14:00:06;7.90;99.90
23815;DHT22;12088;53.078;8.720;2023-03-14T14:02:36;7.60;99.90
23815;DHT22;12088;53.078;8.720;2023-03-14T14:05:03;7.60;99.90
23815;DHT22;12088;53.078;8.720;2023-03-14T14:07:29;7.60;99.90
23815;DHT22;12088;53.078;8.720;2023-03-14T14:09:55;9.60;99.90
23815;DHT22;12088;53.078;8.720;2023-03-14T14:12:27;11.20;99.90
23815;DHT22;12088;53.078;8.720;2023-03-14T14:15:07;11.80;99.90
23815;DHT22;12088;53.078;8.720;2023-03-14T14:17:51;11.20;99.90
23815;DHT22;12088;53.078;8.720;2023-03-14T14:20:26;10.30;99.90
23815;DHT22;12088;53.078;8.720;2023-03-14T14:22:57;9.40;99.90
23815;DHT22;12088;53.078;8.720;2023-03-14T14:25:23;8.60;99.90
23815;DHT22;12088;53.078;8.720;2023-03-14T14:27:50;8.30;99.90
23815;DHT22;12088;53.078;8.720;2023-03-14T14:32:49;8.00;99.90
23815;DHT22;12088;53.078;8.720;2023-03-14T14:35:49;7.70;99.90
23815;DHT22;12088;53.078;8.720;2023-03-14T14:38:16;7.40;99.90
23815;DHT22;12088;53.078;8.720;2023-03-14T14:40:49;7.10;99.90
23815;DHT22;12088;53.078;8.720;2023-03-14T14:43:21;7.20;99.90
23815;DHT22;12088;53.078;8.720;2023-03-14T14:45:49;7.30;99.90
23815;DHT22;12088;53.078;8.720;2023-03-14T14:48:25;8.10;99.90
23815;DHT22;12088;53.078;8.720;2023-03-14T14:51:03;8.60;99.90
23815;DHT22;12088;53.078;8.720;2023-03-14T14:53:38;8.70;99.90
23815;DHT22;12088;53.078;8.720;2023-03-14T14:56:21;8.60;99.90
23815;DHT22;12088;53.078;8.720;2023-03-14T15:03:49;8.60;99.90
23815;DHT22;12088;53.078;8.720;2023-03-14T15:06:16;8.70;99.90
23815;DHT22;12088;53.078;8.720;2023-03-14T15:11:24;8.00;99.90
23815;DHT22;12088;53.078;8.720;2023-03-14T15:13:50;8.20;99.90
23815;DHT22;12088;53.078;8.720;2023-03-14T15:16:22;8.40;99.90
23815;DHT22;12088;53.078;8.720;2023-03-14T15:21:18;8.20;99.90
23815;DHT22;12088;53.078;8.720;2023-03-14T15:23:43;8.10;99.90
23815;DHT22;12088;53.078;8.720;2023-03-14T15:26:16;8.20;99.90
23815;DHT22;12088;53.078;8.720;2023-03-14T15:28:42;8.60;99.90
23815;DHT22;12088;53.078;8.720;2023-03-14T15:31:09;8.40;99.90
23815;DHT22;12088;53.078;8.720;2023-03-14T15:33:35;8.40;99.90
23815;DHT22;12088;53.078;8.720;2023-03-14T15:36:01;8.20;99.90
23815;DHT22;12088;53.078;8.720;2023-03-14T15:38:26;7.90;99.90
23815;DHT22;12088;53.078;8.720;2023-03-14T15:40:52;7.80;99.90
23815;DHT22;12088;53.078;8.720;2023-03-14T15:43:19;7.70;99.90
23815;DHT22;12088;53.078;8.720;2023-03-14T15:45:45;7.40;99.90
23815;DHT22;12088;53.078;8.720;2023-03-14T15:48:16;7.20;99.90
23815;DHT22;12088;53.078;8.720;2023-03-14T15:50:42;7.30;99.90
23815;DHT22;12088;53.078;8.720;2023-03-14T15:53:08;7.20;99.90
23815;DHT22;12088;53.078;8.720;2023-03-14T15:55:33;7.20;99.90
23815;DHT22;12088;53.078;8.720;2023-03-14T15:57:59;7.10;99.90
23815;DHT22;12088;53.078;8.720;2023-03-14T16:00:25;7.10;99.90
23815;DHT22;12088;53.078;8.720;2023-03-14T16:02:51;6.80;99.90
23815;DHT22;12088;53.078;8.720;2023-03-14T16:05:17;6.90;99.90
23815;DHT22;12088;53.078;8.720;2023-03-14T16:07:45;7.30;99.90
23815;DHT22;12088;53.078;8.720;2023-03-14T16:10:12;7.40;99.90
23815;DHT22;12088;53.078;8.720;2023-03-14T16:12:38;7.00;99.90
23815;DHT22;12088;53.078;8.720;2023-03-14T16:15:04;6.80;99.90
23815;DHT22;12088;53.078;8.720;2023-03-14T16:17:31;6.70;99.90
23815;DHT22;12088;53.078;8.720;2023-03-14T16:19:57;6.70;99.90
23815;DHT22;12088;53.078;8.720;2023-03-14T16:22:23;6.60;99.90
23815;DHT22;12088;53.078;8.720;2023-03-14T16:24:48;6.40;99.90
23815;DHT22;12088;53.078;8.720;2023-03-14T16:27:14;6.30;99.90
23815;DHT22;12088;53.078;8.720;2023-03-14T16:29:40;6.30;99.90
23815;DHT22;12088;53.078;8.720;2023-03-14T16:32:06;6.20;99.90
23815;DHT22;12088;53.078;8.720;2023-03-14T16:34:32;6.10;99.90
23815;DHT22;12088;53.078;8.720;2023-03-14T16:36:58;6.20;99.90
23815;DHT22;12088;53.078;8.720;2023-03-14T16:39:23;6.30;99.90
23815;DHT22;12088;53.078;8.720;2023-03-14T16:41:48;6.30;99.90
23815;DHT22;12088;53.078;8.720;2023-03-14T16:44:15;6.30;99.90
23815;DHT22;12088;53.078;8.720;2023-03-14T16:46:41;6.10;99.90
23815;DHT22;12088;53.078;8.720;2023-03-14T16:49:06;6.00;99.90
23815;DHT22;12088;53.078;8.720;2023-03-14T16:51:32;5.80;99.90
23815;DHT22;12088;53.078;8.720;2023-03-14T16:53:57;5.60;99.90
23815;DHT22;12088;53.078;8.720;2023-03-14T16:56:23;5.60;99.90
23815;DHT22;12088;53.078;8.720;2023-03-14T16:58:49;5.50;99.90
23815;DHT22;12088;53.078;8.720;2023-03-14T17:01:16;5.50;99.90
23815;DHT22;12088;53.078;8.720;2023-03-14T17:03:44;5.50;99.90
23815;DHT22;12088;53.078;8.720;2023-03-14T17:06:11;5.60;99.90
23815;DHT22;12088;53.078;8.720;2023-03-14T17:08:37;5.40;99.90
23815;DHT22;12088;53.078;8.720;2023-03-14T17:11:03;5.10;99.90
23815;DHT22;12088;53.078;8.720;2023-03-14T17:13:28;5.00;99.90
23815;DHT22;12088;53.078;8.720;2023-03-14T17:15:57;4.80;99.90
23815;DHT22;12088;53.078;8.720;2023-03-14T17:18:24;4.80;99.90
23815;DHT22;12088;53.078;8.720;2023-03-14T17:20:54;4.80;99.90
23815;DHT22;12088;53.078;8.720;2023-03-14T17:23:20;4.70;99.90
23815;DHT22;12088;53.078;8.720;2023-03-14T17:25:47;4.70;99.90
23815;DHT22;12088;53.078;8.720;2023-03-14T17:28:15;4.50;99.90
23815;DHT22;12088;53.078;8.720;2023-03-14T17:30:40;4.40;99.90
23815;DHT22;12088;53.078;8.720;2023-03-14T17:33:06;4.30;99.90
23815;DHT22;12088;53.078;8.720;2023-03-14T17:35:32;4.20;99.90